createdAt,value
2023-04-11T00:01:23.219Z,96500.13
2023-04-11T00:07:03.297Z,96498.77
2023-04-11T00:09:49.974Z,96493.36
2023-04-11T00:12:37.123Z,96486.97
2023-04-11T00:15:27.016Z,96483.06
2023-04-11T00:18:14.233Z,96482.17
2023-04-11T00:21:01.240Z,96482.63
2023-04-11T00:23:47.952Z,96481.38
2023-04-11T00:26:34.886Z,96482.81
2023-04-11T00:29:21.889Z,96481.30
2023-04-11T00:32:08.923Z,96479.15
2023-04-11T00:34:55.915Z,96474.16
2023-04-11T00:37:44.771Z,96475.52
2023-04-11T00:40:31.888Z,96472.13
2023-04-11T00:43:18.496Z,96473.52
2023-04-11T00:46:06.567Z,96477.17
2023-04-11T00:48:54.274Z,96479.40
2023-04-11T00:51:41.497Z,96487.10
2023-04-11T00:54:30.454Z,96484.06
2023-04-11T00:57:19.401Z,96484.16
2023-04-11T01:00:10.248Z,96481.30
2023-04-11T01:02:57.637Z,96480.80
2023-04-11T01:05:46.107Z,96481.09
2023-04-11T01:08:35.188Z,96478.44
2023-04-11T01:11:22.788Z,96475.47
2023-04-11T01:14:09.917Z,96471.00
2023-04-11T01:16:58.055Z,96467.38
2023-04-11T01:19:45.168Z,96463.94
2023-04-11T01:22:32.907Z,96463.55
2023-04-11T01:25:24.325Z,96463.09
2023-04-11T01:28:11.135Z,96465.09
2023-04-11T01:30:59.266Z,96464.57
2023-04-11T01:33:47.121Z,96466.63
2023-04-11T01:36:34.331Z,96464.70
2023-04-11T01:39:21.456Z,96462.55
2023-04-11T01:42:09.786Z,96462.20
2023-04-11T01:44:56.916Z,96461.54
2023-04-11T01:47:45.020Z,96460.10
2023-04-11T01:50:31.960Z,96460.83
2023-04-11T01:53:18.780Z,96457.48
2023-04-11T01:56:06.434Z,96451.45
2023-04-11T01:58:53.506Z,96451.08
2023-04-11T02:01:44.654Z,96451.04
2023-04-11T02:04:31.650Z,96450.11
2023-04-11T02:07:18.362Z,96450.10
2023-04-11T02:10:08.863Z,96446.11
2023-04-11T02:12:55.770Z,96448.84
2023-04-11T02:15:42.511Z,96448.61
2023-04-11T02:18:29.709Z,96448.06
2023-04-11T02:21:16.518Z,96441.05
2023-04-11T02:24:03.780Z,96438.73
2023-04-11T02:26:50.758Z,96432.62
2023-04-11T02:29:37.872Z,96428.39
2023-04-11T02:32:24.812Z,96429.70
2023-04-11T02:35:11.599Z,96423.70
2023-04-11T02:38:00.710Z,96419.16
2023-04-11T02:40:48.190Z,96419.66
2023-04-11T02:43:35.306Z,96420.54
2023-04-11T02:46:23.196Z,96421.61
2023-04-11T02:49:10.450Z,96415.89
2023-04-11T02:51:57.896Z,96412.54
2023-04-11T02:54:46.240Z,96411.49
2023-04-11T02:57:33.354Z,96413.72
2023-04-11T03:00:21.602Z,96413.38
2023-04-11T03:03:12.604Z,96415.85
2023-04-11T03:06:02.592Z,96410.79
2023-04-11T03:08:50.535Z,96408.96
2023-04-11T03:11:37.757Z,96407.13
2023-04-11T03:14:25.177Z,96406.23
2023-04-11T03:17:12.191Z,96403.87
2023-04-11T03:19:58.802Z,96399.59
2023-04-11T03:22:46.846Z,96394.75
2023-04-11T03:25:33.857Z,96398.89
2023-04-11T03:28:23.306Z,96395.90
2023-04-11T03:31:11.971Z,96396.48
2023-04-11T03:33:59.918Z,96393.31
2023-04-11T03:36:47.044Z,96397.20
2023-04-11T03:39:34.371Z,96397.47
2023-04-11T03:42:22.513Z,96398.27
2023-04-11T03:45:13.659Z,96394.23
2023-04-11T03:48:00.578Z,96394.34
2023-04-11T03:50:53.185Z,96395.05
2023-04-11T03:53:43.651Z,96397.20
2023-04-11T03:56:42.788Z,96393.89
2023-04-11T03:59:36.348Z,96395.19
2023-04-11T04:02:27.533Z,96395.67
2023-04-11T04:05:15.187Z,96395.65
2023-04-11T04:08:02.640Z,96395.01
2023-04-11T04:11:02.022Z,96392.86
2023-04-11T04:13:51.096Z,96390.38
2023-04-11T04:16:38.259Z,96391.31
2023-04-11T04:19:25.852Z,96392.26
2023-04-11T04:22:13.330Z,96389.70
2023-04-11T04:25:03.532Z,96392.08
2023-04-11T04:27:54.308Z,96391.41
2023-04-11T04:30:42.320Z,96388.92
2023-04-11T04:33:33.239Z,96387.56
2023-04-11T04:36:22.166Z,96385.60
2023-04-11T04:39:10.814Z,96384.09
2023-04-11T04:42:00.206Z,96384.55
2023-04-11T04:44:53.301Z,96380.35
2023-04-11T04:47:40.915Z,96378.50
2023-04-11T04:50:28.029Z,96382.34
2023-04-11T04:53:15.418Z,96386.36
2023-04-11T04:56:07.353Z,96384.37
2023-04-11T04:58:58.364Z,96387.39
2023-04-11T05:01:45.796Z,96389.35
2023-04-11T05:04:34.383Z,96391.52
2023-04-11T05:07:23.703Z,96394.21
2023-04-11T05:10:11.865Z,96395.17
2023-04-11T05:12:59.898Z,96400.02
2023-04-11T05:15:51.372Z,96397.71
2023-04-11T05:18:38.738Z,96397.38
2023-04-11T05:21:26.987Z,96399.20
2023-04-11T05:24:14.217Z,96394.06
2023-04-11T05:27:01.319Z,96389.17
2023-04-11T05:29:48.346Z,96390.10
2023-04-11T05:32:36.304Z,96392.14
2023-04-11T05:35:23.295Z,96394.68
2023-04-11T05:38:14.302Z,96388.27
2023-04-11T05:41:01.219Z,96381.96
2023-04-11T05:43:47.926Z,96381.42
2023-04-11T05:49:30.062Z,96370.66
2023-04-11T05:52:17.162Z,96373.29
2023-04-11T05:55:06.096Z,96370.77
2023-04-11T05:57:53.158Z,96367.84
2023-04-11T06:00:40.358Z,96361.36
2023-04-11T06:03:27.762Z,96364.39
2023-04-11T06:06:15.214Z,96359.70
2023-04-11T06:09:02.293Z,96360.79
2023-04-11T06:11:49.250Z,96362.35
2023-04-11T06:14:38.107Z,96362.65
2023-04-11T06:17:26.304Z,96362.74
2023-04-11T06:20:13.770Z,96358.92
2023-04-11T06:23:01.608Z,96359.39
2023-04-11T06:25:48.217Z,96358.73
2023-04-11T06:28:35.027Z,96362.34
2023-04-11T06:31:21.850Z,96360.00
2023-04-11T06:34:09.183Z,96361.26
2023-04-11T06:36:56.479Z,96356.85
2023-04-11T06:39:43.767Z,96357.09
2023-04-11T06:42:31.235Z,96352.64
2023-04-11T06:45:18.751Z,96351.21
2023-04-11T06:48:05.980Z,96353.17
2023-04-11T06:50:52.915Z,96350.27
2023-04-11T06:53:39.604Z,96348.69
2023-04-11T06:58:50.807Z,96344.05
2023-04-11T07:01:39.867Z,96348.00
2023-04-11T07:04:26.945Z,96348.75
2023-04-11T07:10:07.271Z,96349.04
2023-04-11T07:12:54.591Z,96349.56
2023-04-11T07:15:41.721Z,96351.39
2023-04-11T07:18:28.726Z,96351.25
2023-04-11T07:21:16.247Z,96350.19
2023-04-11T07:24:04.198Z,96352.50
2023-04-11T07:26:52.054Z,96351.77
2023-04-11T07:32:31.094Z,96349.15
2023-04-11T07:35:17.677Z,96343.29
2023-04-11T07:38:04.793Z,96340.81
2023-04-11T07:40:51.537Z,96338.75
2023-04-11T07:43:38.827Z,96336.79
2023-04-11T07:46:26.074Z,96339.69
2023-04-11T07:49:12.960Z,96338.64
2023-04-11T07:51:59.574Z,96333.11
2023-04-11T07:54:46.534Z,96327.77
2023-04-11T07:57:33.605Z,96328.59
2023-04-11T08:00:23.212Z,96322.63
2023-04-11T08:03:13.549Z,96318.86
2023-04-11T08:06:00.589Z,96322.55
2023-04-11T08:08:48.934Z,96318.40
2023-04-11T08:11:39.559Z,96315.95
2023-04-11T08:14:26.233Z,96310.82
2023-04-11T08:17:27.170Z,96310.08
2023-04-11T08:20:15.433Z,96303.77
2023-04-11T08:23:06.438Z,96303.47
2023-04-11T08:25:53.145Z,96298.26
2023-04-11T08:28:42.393Z,96292.92
2023-04-11T08:31:30.058Z,96291.64
2023-04-11T08:34:17.171Z,96287.44
2023-04-11T08:37:04.780Z,96285.66
2023-04-11T08:39:51.719Z,96278.70
2023-04-11T08:42:38.540Z,96276.30
2023-04-11T08:45:25.331Z,96271.52
2023-04-11T08:48:12.653Z,96269.38
2023-04-11T08:50:59.883Z,96266.52
2023-04-11T08:53:46.687Z,96260.98
2023-04-11T08:56:35.404Z,96256.17
2023-04-11T08:59:22.565Z,96253.07
2023-04-11T09:02:09.837Z,96248.80
2023-04-11T09:04:57.847Z,96243.02
2023-04-11T09:07:50.879Z,96236.85
2023-04-11T09:10:40.043Z,96230.69
2023-04-11T09:13:28.537Z,96220.79
2023-04-11T09:16:16.619Z,96213.95
2023-04-11T09:19:03.854Z,96205.91
2023-04-11T09:21:50.806Z,96200.10
2023-04-11T09:24:38.307Z,96200.84
2023-04-11T09:27:26.425Z,96200.40
2023-04-11T09:30:26.840Z,96194.15
2023-04-11T09:33:28.623Z,96191.91
2023-04-11T09:36:23.856Z,96187.86
2023-04-11T09:39:18.866Z,96180.86
2023-04-11T09:42:25.565Z,96178.04
2023-04-11T09:45:21.107Z,96180.40
2023-04-11T09:48:08.940Z,96172.61
2023-04-11T09:50:58.799Z,96168.71
2023-04-11T09:53:46.420Z,96161.93
2023-04-11T09:56:34.883Z,96156.55
2023-04-11T09:59:23.090Z,96155.54
2023-04-11T10:02:10.086Z,96147.86
2023-04-11T10:04:59.912Z,96138.50
2023-04-11T10:07:58.920Z,96132.34
2023-04-11T10:10:46.198Z,96133.54
2023-04-11T10:13:35.579Z,96130.47
2023-04-11T10:16:24.393Z,96128.98
2023-04-11T10:19:17.581Z,96126.56
2023-04-11T10:22:04.505Z,96117.30
2023-04-11T10:25:20.505Z,96113.13
2023-04-11T10:28:07.722Z,96110.55
2023-04-11T10:31:10.203Z,96105.83
2023-04-11T10:34:16.952Z,96102.77
2023-04-11T10:37:10.954Z,96099.84
2023-04-11T10:40:01.446Z,96098.38
2023-04-11T10:42:51.667Z,96096.98
2023-04-11T10:45:42.824Z,96096.81
2023-04-11T10:48:52.407Z,96092.55
2023-04-11T10:51:42.494Z,96087.05
2023-04-11T10:54:32.478Z,96081.01
2023-04-11T10:57:23.241Z,96080.31
2023-04-11T11:00:15.917Z,96075.73
2023-04-11T11:03:05.064Z,96073.63
2023-04-11T11:06:03.084Z,96074.21
2023-04-11T11:08:49.834Z,96068.41
2023-04-11T11:11:37.054Z,96064.58
2023-04-11T11:14:32.829Z,96062.21
2023-04-11T11:17:19.985Z,96055.95
2023-04-11T11:20:10.300Z,96049.34
2023-04-11T11:23:05.920Z,96044.02
2023-04-11T11:25:54.906Z,96036.77
2023-04-11T11:28:49.035Z,96029.81
2023-04-11T11:31:42.202Z,96026.45
2023-04-11T11:34:31.535Z,96019.41
2023-04-11T11:37:19.146Z,96016.46
2023-04-11T11:40:12.840Z,96014.93
2023-04-11T11:43:00.138Z,96012.98
2023-04-11T11:45:47.895Z,96008.58
2023-04-11T11:48:35.095Z,96003.37
2023-04-11T11:51:21.536Z,95997.65
2023-04-11T11:54:10.678Z,95999.89
2023-04-11T11:56:57.464Z,95995.29
2023-04-11T11:59:44.476Z,95991.52
2023-04-11T12:02:34.574Z,95988.77
2023-04-11T12:05:24.950Z,95983.06
2023-04-11T12:08:12.613Z,95978.58
2023-04-11T12:10:59.634Z,95969.83
2023-04-11T12:13:52.989Z,95971.00
2023-04-11T12:16:39.793Z,95966.23
2023-04-11T12:19:27.636Z,95960.05
2023-04-11T12:22:15.884Z,95955.99
2023-04-11T12:25:07.315Z,95954.71
2023-04-11T12:27:54.342Z,95949.34
2023-04-11T12:30:41.845Z,95949.29
2023-04-11T12:33:29.164Z,95946.71
2023-04-11T12:36:16.266Z,95946.13
2023-04-11T12:39:02.895Z,95944.89
2023-04-11T12:41:49.800Z,95941.14
2023-04-11T12:44:37.028Z,95932.88
2023-04-11T12:47:24.389Z,95927.69
2023-04-11T12:50:12.076Z,95925.23
2023-04-11T12:52:59.457Z,95920.45
2023-04-11T12:55:46.413Z,95918.34
2023-04-11T12:58:33.338Z,95918.27
2023-04-11T13:01:21.434Z,95911.15
2023-04-11T13:04:08.638Z,95906.67
2023-04-11T13:07:00.981Z,95899.71
2023-04-11T13:09:51.233Z,95893.40
2023-04-11T13:12:41.831Z,95891.11
2023-04-11T13:15:28.964Z,95887.39
2023-04-11T13:18:15.896Z,95880.96
2023-04-11T13:21:02.888Z,95874.25
2023-04-11T13:23:49.809Z,95871.25
2023-04-11T13:26:37.213Z,95868.42
2023-04-11T13:29:24.265Z,95864.66
2023-04-11T13:32:11.249Z,95861.25
2023-04-11T13:34:58.100Z,95859.80
2023-04-11T13:37:45.173Z,95856.69
2023-04-11T13:40:32.202Z,95852.70
2023-04-11T13:43:18.906Z,95849.80
2023-04-11T13:46:06.486Z,95847.40
2023-04-11T13:48:53.314Z,95844.21
2023-04-11T13:51:41.481Z,95846.99
2023-04-11T13:54:28.615Z,95849.02
2023-04-11T13:57:15.515Z,95843.94
2023-04-11T14:00:06.847Z,95842.48
2023-04-11T14:02:53.997Z,95839.95
2023-04-11T14:05:41.288Z,95839.46
2023-04-11T14:08:29.267Z,95841.41
2023-04-11T14:11:16.652Z,95838.64
2023-04-11T14:14:03.662Z,95839.55
2023-04-11T14:16:50.803Z,95839.59
2023-04-11T14:19:37.903Z,95834.57
2023-04-11T14:22:26.532Z,95833.00
2023-04-11T14:25:13.920Z,95829.31
2023-04-11T14:28:01.504Z,95831.23
2023-04-11T14:30:48.168Z,95827.23
2023-04-11T14:33:35.448Z,95824.71
2023-04-11T14:36:22.197Z,95826.73
2023-04-11T14:39:09.144Z,95824.67
2023-04-11T14:41:56.587Z,95824.80
2023-04-11T14:44:43.341Z,95824.92
2023-04-11T14:47:30.768Z,95822.98
2023-04-11T14:50:17.753Z,95816.94
2023-04-11T14:53:05.878Z,95814.69
2023-04-11T14:55:52.886Z,95812.42
2023-04-11T14:58:40.103Z,95811.70
2023-04-11T15:01:27.363Z,95813.70
2023-04-11T15:04:14.813Z,95813.33
2023-04-11T15:07:02.290Z,95809.34
2023-04-11T15:09:48.981Z,95808.05
2023-04-11T15:12:36.207Z,95806.06
2023-04-11T15:15:22.870Z,95806.39
2023-04-11T15:18:24.475Z,95806.19
2023-04-11T15:21:11.392Z,95804.89
2023-04-11T15:23:58.878Z,95803.40
2023-04-11T15:26:46.664Z,95797.36
2023-04-11T15:29:33.980Z,95800.59
2023-04-11T15:32:21.354Z,95798.92
2023-04-11T15:35:09.148Z,95799.96
2023-04-11T15:37:57.072Z,95799.80
2023-04-11T15:40:44.132Z,95795.90
2023-04-11T15:43:32.342Z,95792.46
2023-04-11T15:46:19.494Z,95790.89
2023-04-11T15:49:06.365Z,95789.48
2023-04-11T15:51:53.381Z,95788.56
2023-04-11T15:54:40.085Z,95788.66
2023-04-11T15:57:28.559Z,95789.40
2023-04-11T16:00:16.594Z,95784.10
2023-04-11T16:03:04.906Z,95788.87
2023-04-11T16:05:53.170Z,95790.95
2023-04-11T16:08:39.982Z,95795.26
2023-04-11T16:11:27.094Z,95793.89
2023-04-11T16:14:14.426Z,95791.99
2023-04-11T16:17:01.335Z,95788.34
2023-04-11T16:19:51.848Z,95787.73
2023-04-11T16:22:39.768Z,95787.98
2023-04-11T16:25:26.801Z,95788.08
2023-04-11T16:28:14.358Z,95788.69
2023-04-11T16:31:01.223Z,95787.50
2023-04-11T16:33:48.283Z,95795.32
2023-04-11T16:36:35.679Z,95798.35
2023-04-11T16:39:23.730Z,95796.99
2023-04-11T16:42:10.937Z,95791.28
2023-04-11T16:44:57.953Z,95794.98
2023-04-11T16:47:44.989Z,95801.20
2023-04-11T16:50:32.397Z,95805.05
2023-04-11T16:53:19.506Z,95808.55
2023-04-11T16:56:07.029Z,95813.85
2023-04-11T16:58:54.150Z,95812.31
2023-04-11T17:01:42.114Z,95815.30
2023-04-11T17:04:29.721Z,95815.21
2023-04-11T17:07:17.775Z,95816.69
2023-04-11T17:10:05.806Z,95819.85
2023-04-11T17:12:54.252Z,95820.96
2023-04-11T17:15:41.168Z,95821.80
2023-04-11T17:18:27.975Z,95823.70
2023-04-11T17:21:16.837Z,95820.73
2023-04-11T17:24:03.865Z,95822.42
2023-04-11T17:26:50.573Z,95821.60
2023-04-11T17:29:37.875Z,95819.77
2023-04-11T17:32:24.805Z,95820.83
2023-04-11T17:35:11.471Z,95823.73
2023-04-11T17:37:58.631Z,95824.59
2023-04-11T17:40:45.501Z,95824.59
2023-04-11T17:43:32.963Z,95830.64
2023-04-11T17:46:20.599Z,95832.29
2023-04-11T17:49:07.922Z,95833.02
2023-04-11T17:51:59.198Z,95836.27
2023-04-11T17:54:47.094Z,95837.77
2023-04-11T17:57:34.910Z,95834.32
2023-04-11T18:00:23.344Z,95833.23
2023-04-11T18:03:10.506Z,95835.63
2023-04-11T18:05:58.429Z,95840.20
2023-04-11T18:08:50.389Z,95839.69
2023-04-11T18:11:38.377Z,95840.12
2023-04-11T18:14:25.303Z,95843.27
2023-04-11T18:17:12.419Z,95845.52
2023-04-11T18:19:59.219Z,95844.06
2023-04-11T18:22:54.970Z,95845.10
2023-04-11T18:25:41.556Z,95845.73
2023-04-11T18:28:29.488Z,95844.77
2023-04-11T18:31:17.156Z,95845.18
2023-04-11T18:34:06.658Z,95846.80
2023-04-11T18:36:56.280Z,95847.03
2023-04-11T18:39:44.333Z,95842.91
2023-04-11T18:42:31.548Z,95842.84
2023-04-11T18:45:21.020Z,95838.42
2023-04-11T18:48:08.276Z,95837.92
2023-04-11T18:51:00.081Z,95835.05
2023-04-11T18:53:47.481Z,95835.04
2023-04-11T18:56:35.568Z,95834.27
2023-04-11T18:59:28.838Z,95837.70
2023-04-11T19:02:17.445Z,95843.19
2023-04-11T19:05:08.199Z,95840.48
2023-04-11T19:07:56.182Z,95833.16
2023-04-11T19:10:43.474Z,95831.17
2023-04-11T19:13:33.063Z,95828.59
2023-04-11T19:16:20.223Z,95824.30
2023-04-11T19:19:10.895Z,95820.96
2023-04-11T19:21:58.328Z,95818.35
2023-04-11T19:24:46.683Z,95812.48
2023-04-11T19:27:33.573Z,95815.16
2023-04-11T19:30:23.158Z,95813.75
2023-04-11T19:33:09.984Z,95810.00
2023-04-11T19:35:57.851Z,95810.66
2023-04-11T19:38:47.816Z,95805.51
2023-04-11T19:41:35.692Z,95804.88
2023-04-11T19:44:23.557Z,95804.67
2023-04-11T19:47:10.472Z,95800.10
2023-04-11T19:49:58.770Z,95797.73
2023-04-11T19:52:45.854Z,95791.79
2023-04-11T19:55:32.543Z,95790.17
2023-04-11T19:58:21.050Z,95791.00
2023-04-11T20:01:09.875Z,95782.79
2023-04-11T20:03:57.460Z,95780.30
2023-04-11T20:06:44.599Z,95780.37
2023-04-11T20:09:32.443Z,95779.76
2023-04-11T20:12:19.366Z,95778.65
2023-04-11T20:15:07.605Z,95778.02
2023-04-11T20:17:54.440Z,95775.05
2023-04-11T20:20:41.838Z,95773.19
2023-04-11T20:23:31.236Z,95769.50
2023-04-11T20:26:18.432Z,95769.20
2023-04-11T20:29:05.247Z,95767.02
2023-04-11T20:31:51.941Z,95769.20
2023-04-11T20:34:38.904Z,95767.35
2023-04-11T20:37:25.536Z,95763.89
2023-04-11T20:40:14.238Z,95759.58
2023-04-11T20:43:02.275Z,95758.06
2023-04-11T20:45:49.108Z,95759.81
2023-04-11T20:48:35.984Z,95757.91
2023-04-11T20:51:23.241Z,95760.08
2023-04-11T20:54:11.245Z,95751.77
2023-04-11T20:56:58.054Z,95751.46
2023-04-11T20:59:45.071Z,95749.01
2023-04-11T21:02:32.577Z,95746.78
2023-04-11T21:05:24.986Z,95746.80
2023-04-11T21:08:13.574Z,95744.36
2023-04-11T21:11:02.137Z,95746.00
2023-04-11T21:13:50.082Z,95748.80
2023-04-11T21:16:36.652Z,95750.70
2023-04-11T21:19:24.923Z,95747.77
2023-04-11T21:22:12.465Z,95754.14
2023-04-11T21:25:02.371Z,95754.20
2023-04-11T21:27:50.093Z,95749.53
2023-04-11T21:30:37.299Z,95750.45
2023-04-11T21:33:24.014Z,95744.15
2023-04-11T21:36:11.382Z,95741.73
2023-04-11T21:38:58.276Z,95740.37
2023-04-11T21:41:45.777Z,95739.94
2023-04-11T21:44:33.407Z,95735.81
2023-04-11T21:47:20.421Z,95735.30
2023-04-11T21:50:08.570Z,95733.34
2023-04-11T21:52:55.497Z,95729.89
2023-04-11T21:55:46.885Z,95729.75
2023-04-11T21:58:37.195Z,95724.34
2023-04-11T22:01:24.346Z,95717.98
2023-04-11T22:04:17.944Z,95713.41
2023-04-11T22:07:06.228Z,95713.27
2023-04-11T22:09:59.819Z,95707.13
2023-04-11T22:12:47.009Z,95702.34
2023-04-11T22:15:34.034Z,95698.23
2023-04-11T22:18:26.375Z,95698.61
2023-04-11T22:21:19.694Z,95694.50
2023-04-11T22:24:09.500Z,95695.13
2023-04-11T22:26:58.419Z,95690.86
2023-04-11T22:29:46.523Z,95690.20
2023-04-11T22:32:34.109Z,95683.05
2023-04-11T22:35:20.824Z,95681.49
2023-04-11T22:38:07.769Z,95679.04
2023-04-11T22:40:54.417Z,95676.80
2023-04-11T22:43:42.213Z,95676.46
2023-04-11T22:46:34.261Z,95670.62
2023-04-11T22:49:21.475Z,95669.90
2023-04-11T22:52:14.113Z,95668.79
2023-04-11T22:55:01.427Z,95661.79
2023-04-11T22:57:48.462Z,95660.14
2023-04-11T23:00:38.605Z,95653.69
2023-04-11T23:03:25.664Z,95650.72
2023-04-11T23:06:13.741Z,95648.70
2023-04-11T23:09:00.827Z,95643.88
2023-04-11T23:11:49.030Z,95639.30
2023-04-11T23:14:35.986Z,95635.70
2023-04-11T23:17:23.942Z,95633.77
2023-04-11T23:20:13.829Z,95630.76
2023-04-11T23:23:00.812Z,95625.13
2023-04-11T23:25:47.804Z,95620.27
2023-04-11T23:28:34.864Z,95619.31
2023-04-11T23:31:21.794Z,95614.81
2023-04-11T23:34:08.710Z,95610.98
2023-04-11T23:36:57.751Z,95605.77
2023-04-11T23:39:44.751Z,95599.23
2023-04-11T23:42:31.867Z,95596.45
2023-04-11T23:45:22.620Z,95590.89
2023-04-11T23:48:09.898Z,95588.02
2023-04-11T23:50:57.217Z,95584.89
2023-04-11T23:53:45.645Z,95583.48
2023-04-11T23:56:32.788Z,95583.67
2023-04-11T23:59:19.904Z,95580.54
